createdAt,value
2018-07-27T00:00:46.383Z,19.56
2018-07-27T00:03:15.051Z,19.53
2018-07-27T00:05:43.672Z,19.49
2018-07-27T00:08:12.383Z,19.48
2018-07-27T00:10:40.981Z,19.41
2018-07-27T00:13:09.642Z,19.39
2018-07-27T00:15:38.294Z,19.38
2018-07-27T00:18:06.968Z,19.31
2018-07-27T00:20:35.738Z,19.27
2018-07-27T00:23:04.534Z,19.30
2018-07-27T00:25:33.178Z,19.28
2018-07-27T00:28:01.825Z,19.27
2018-07-27T00:30:30.435Z,19.28
2018-07-27T00:32:59.082Z,19.21
2018-07-27T00:35:27.718Z,19.17
2018-07-27T00:37:56.375Z,19.12
2018-07-27T00:40:25.096Z,19.14
2018-07-27T00:42:53.747Z,19.18
2018-07-27T00:45:22.370Z,19.21
2018-07-27T00:47:51.019Z,19.21
2018-07-27T00:50:19.738Z,19.22
2018-07-27T00:52:48.431Z,19.23
2018-07-27T00:55:17.067Z,19.20
2018-07-27T00:57:45.724Z,19.14
2018-07-27T01:00:14.533Z,19.14
2018-07-27T01:02:43.250Z,19.11
2018-07-27T01:05:11.903Z,19.07
2018-07-27T01:07:40.539Z,19.08
2018-07-27T01:10:09.267Z,18.98
2018-07-27T01:12:37.902Z,18.94
2018-07-27T01:15:06.834Z,19.01
2018-07-27T01:17:35.641Z,18.90
2018-07-27T01:20:05.271Z,18.91
2018-07-27T01:22:33.914Z,18.79
2018-07-27T01:25:02.571Z,18.77
2018-07-27T01:27:31.220Z,18.77
2018-07-27T01:29:59.912Z,18.73
2018-07-27T01:32:28.603Z,18.67
2018-07-27T01:34:57.292Z,18.65
2018-07-27T01:37:25.980Z,18.58
2018-07-27T01:39:54.638Z,18.50
2018-07-27T01:42:23.249Z,18.46
2018-07-27T01:44:51.913Z,18.41
2018-07-27T01:47:20.910Z,18.40
2018-07-27T01:49:49.569Z,18.38
2018-07-27T01:52:18.220Z,18.33
2018-07-27T01:54:47.396Z,18.32
2018-07-27T01:57:16.074Z,18.35
2018-07-27T01:59:44.762Z,18.35
2018-07-27T02:02:13.419Z,18.28
2018-07-27T02:04:42.092Z,18.32
2018-07-27T02:07:10.727Z,18.30
2018-07-27T02:09:39.449Z,18.29
2018-07-27T02:12:08.267Z,18.27
2018-07-27T02:14:36.931Z,18.33
2018-07-27T02:17:05.824Z,18.33
2018-07-27T02:19:34.493Z,18.27
2018-07-27T02:22:03.115Z,18.26
2018-07-27T02:24:31.727Z,18.23
2018-07-27T02:27:00.416Z,18.18
2018-07-27T02:29:29.041Z,18.14
2018-07-27T02:32:12.310Z,18.08
2018-07-27T02:34:41.055Z,18.15
2018-07-27T02:37:09.723Z,18.19
2018-07-27T02:39:38.356Z,18.18
2018-07-27T02:42:07.022Z,18.17
2018-07-27T02:44:35.666Z,18.16
2018-07-27T02:47:04.365Z,18.17
2018-07-27T02:49:33.265Z,18.13
2018-07-27T02:52:01.964Z,18.17
2018-07-27T02:54:30.628Z,18.11
2018-07-27T02:56:59.285Z,18.14
2018-07-27T02:59:27.918Z,18.12
2018-07-27T03:01:56.582Z,18.19
2018-07-27T03:04:25.319Z,18.10
2018-07-27T03:06:53.946Z,18.10
2018-07-27T03:09:22.689Z,18.21
2018-07-27T03:11:51.386Z,18.12
2018-07-27T03:14:20.043Z,18.17
2018-07-27T03:16:48.774Z,18.16
2018-07-27T03:19:17.407Z,18.18
2018-07-27T03:21:46.075Z,18.21
2018-07-27T03:24:14.730Z,18.24
2018-07-27T03:26:43.351Z,18.30
2018-07-27T03:29:12.005Z,18.30
2018-07-27T03:31:40.686Z,18.37
2018-07-27T03:34:09.349Z,18.39
2018-07-27T03:36:37.984Z,18.46
2018-07-27T03:39:08.909Z,18.40
2018-07-27T03:41:37.529Z,18.43
2018-07-27T03:44:06.401Z,18.44
2018-07-27T03:46:35.046Z,18.49
2018-07-27T03:49:03.697Z,18.52
2018-07-27T03:51:32.301Z,18.55
2018-07-27T03:54:00.976Z,18.54
2018-07-27T03:56:29.597Z,18.53
2018-07-27T03:58:58.214Z,18.65
2018-07-27T04:01:26.857Z,18.67
2018-07-27T04:03:55.740Z,18.75
2018-07-27T04:06:24.422Z,18.77
2018-07-27T04:08:53.045Z,18.77
2018-07-27T04:11:21.689Z,18.85
2018-07-27T04:13:50.347Z,18.90
2018-07-27T04:16:19.062Z,18.94
2018-07-27T04:18:47.727Z,18.99
2018-07-27T04:21:16.358Z,18.95
2018-07-27T04:23:45.018Z,18.92
2018-07-27T04:26:13.798Z,18.92
2018-07-27T04:28:42.417Z,18.97
2018-07-27T04:31:11.099Z,19.01
2018-07-27T04:33:39.747Z,18.93
2018-07-27T04:36:08.393Z,18.90
2018-07-27T04:38:37.027Z,18.99
2018-07-27T04:41:05.699Z,19.05
2018-07-27T04:43:34.348Z,19.15
2018-07-27T04:46:03.001Z,19.17
2018-07-27T04:48:31.707Z,19.19
2018-07-27T04:51:00.386Z,19.19
2018-07-27T04:53:29.033Z,19.15
2018-07-27T04:55:57.738Z,19.12
2018-07-27T04:58:26.355Z,19.08
2018-07-27T05:00:55.006Z,19.08
2018-07-27T05:03:23.712Z,19.18
2018-07-27T05:05:52.351Z,19.27
2018-07-27T05:08:20.990Z,19.31
2018-07-27T05:10:50.598Z,19.34
2018-07-27T05:13:20.007Z,19.35
2018-07-27T05:15:49.624Z,19.43
2018-07-27T05:18:18.885Z,19.50
2018-07-27T05:20:47.974Z,19.62
2018-07-27T05:23:16.726Z,19.63
2018-07-27T05:25:45.376Z,19.72
2018-07-27T05:28:14.033Z,19.82
2018-07-27T05:30:42.743Z,19.85
2018-07-27T05:33:11.480Z,19.96
2018-07-27T05:35:40.130Z,20.05
2018-07-27T05:38:08.793Z,20.09
2018-07-27T05:40:37.621Z,20.20
2018-07-27T05:43:06.360Z,20.23
2018-07-27T05:45:35.093Z,20.20
2018-07-27T05:48:03.813Z,20.20
2018-07-27T05:50:32.570Z,20.19
2018-07-27T05:53:01.235Z,20.28
2018-07-27T05:55:29.922Z,20.38
2018-07-27T05:57:58.695Z,20.37
2018-07-27T06:00:27.379Z,20.48
2018-07-27T06:02:56.076Z,20.50
2018-07-27T06:05:24.741Z,20.52
2018-07-27T06:07:53.438Z,20.54
2018-07-27T06:10:22.097Z,20.68
2018-07-27T06:12:50.797Z,20.72
2018-07-27T06:15:19.460Z,20.72
2018-07-27T06:17:48.125Z,20.76
2018-07-27T06:20:16.770Z,20.84
2018-07-27T06:22:45.443Z,20.84
2018-07-27T06:25:14.115Z,20.99
2018-07-27T06:27:42.797Z,21.05
2018-07-27T06:30:11.581Z,21.05
2018-07-27T06:32:40.349Z,20.93
2018-07-27T06:35:09.035Z,20.77
2018-07-27T06:37:38.045Z,20.86
2018-07-27T06:40:06.988Z,20.99
2018-07-27T06:42:35.755Z,20.96
2018-07-27T06:45:05.086Z,21.06
2018-07-27T06:47:33.787Z,21.13
2018-07-27T06:50:02.486Z,21.30
2018-07-27T06:52:31.226Z,21.40
2018-07-27T06:54:59.875Z,21.49
2018-07-27T06:57:28.533Z,21.55
2018-07-27T06:59:57.221Z,21.66
2018-07-27T07:02:25.891Z,21.64
2018-07-27T07:04:54.523Z,21.67
2018-07-27T07:07:23.278Z,21.81
2018-07-27T07:09:51.938Z,21.93
2018-07-27T07:12:20.918Z,21.95
2018-07-27T07:14:49.542Z,21.92
2018-07-27T07:17:18.266Z,22.14
2018-07-27T07:19:46.934Z,22.15
2018-07-27T07:22:15.628Z,22.24
2018-07-27T07:24:44.277Z,22.38
2018-07-27T07:27:12.912Z,22.57
2018-07-27T07:29:41.551Z,22.67
2018-07-27T07:32:10.252Z,22.55
2018-07-27T07:34:38.918Z,22.45
2018-07-27T07:37:07.836Z,22.26
2018-07-27T07:39:36.529Z,22.43
2018-07-27T07:42:05.301Z,22.51
2018-07-27T07:44:33.944Z,22.64
2018-07-27T07:47:02.598Z,22.74
2018-07-27T07:49:31.327Z,22.90
2018-07-27T07:51:59.994Z,22.95
2018-07-27T07:54:28.622Z,22.98
2018-07-27T07:56:57.241Z,23.01
2018-07-27T07:59:25.888Z,22.87
2018-07-27T08:01:54.561Z,22.67
2018-07-27T08:04:23.593Z,22.74
2018-07-27T08:06:52.286Z,22.59
2018-07-27T08:09:20.960Z,22.69
2018-07-27T08:11:49.654Z,22.65
2018-07-27T08:14:18.477Z,22.95
2018-07-27T08:16:47.178Z,23.11
2018-07-27T08:19:15.867Z,23.29
2018-07-27T08:21:44.607Z,23.37
2018-07-27T08:24:13.242Z,23.16
2018-07-27T08:26:47.125Z,22.86
2018-07-27T08:29:48.601Z,22.71
2018-07-27T08:32:17.269Z,22.78
2018-07-27T08:34:45.938Z,22.78
2018-07-27T08:37:14.830Z,22.98
2018-07-27T08:39:44.111Z,22.95
2018-07-27T08:42:13.119Z,23.16
2018-07-27T08:44:42.810Z,23.00
2018-07-27T08:47:11.669Z,23.03
2018-07-27T08:49:40.547Z,22.78
2018-07-27T08:52:09.393Z,22.73
2018-07-27T08:54:38.324Z,22.90
2018-07-27T08:57:07.226Z,23.03
2018-07-27T08:59:36.079Z,23.16
2018-07-27T09:02:05.101Z,23.24
2018-07-27T09:04:33.849Z,23.55
2018-07-27T09:07:02.596Z,23.79
2018-07-27T09:09:31.423Z,23.64
2018-07-27T09:12:00.201Z,23.62
2018-07-27T09:14:28.964Z,23.59
2018-07-27T09:16:57.900Z,23.44
2018-07-27T09:19:26.775Z,23.74
2018-07-27T09:21:55.713Z,23.95
2018-07-27T09:24:24.689Z,24.02
2018-07-27T09:26:53.382Z,24.25
2018-07-27T09:29:22.214Z,24.16
2018-07-27T09:31:51.049Z,24.32
2018-07-27T09:34:19.857Z,24.43
2018-07-27T09:36:48.599Z,24.51
2018-07-27T09:39:17.387Z,24.73
2018-07-27T09:41:46.303Z,24.78
2018-07-27T09:44:15.601Z,24.89
2018-07-27T09:46:44.343Z,25.18
2018-07-27T09:49:13.119Z,25.25
2018-07-27T09:51:41.915Z,25.04
2018-07-27T09:54:10.649Z,25.02
2018-07-27T09:56:39.527Z,25.22
2018-07-27T09:59:08.414Z,25.12
2018-07-27T10:01:37.490Z,25.28
2018-07-27T10:04:06.356Z,25.38
2018-07-27T10:06:35.228Z,25.64
2018-07-27T10:09:04.822Z,26.04
2018-07-27T10:11:33.647Z,26.16
2018-07-27T10:14:02.478Z,25.94
2018-07-27T10:16:31.337Z,26.04
2018-07-27T10:19:00.275Z,26.18
2018-07-27T10:21:29.060Z,26.35
2018-07-27T10:23:57.926Z,26.49
2018-07-27T10:26:26.704Z,26.59
2018-07-27T10:28:55.456Z,26.38
2018-07-27T10:31:24.275Z,26.55
2018-07-27T10:33:53.130Z,26.71
2018-07-27T10:36:21.966Z,26.95
2018-07-27T10:38:50.853Z,27.09
2018-07-27T10:41:19.676Z,26.67
2018-07-27T10:43:48.573Z,26.99
2018-07-27T10:46:17.506Z,26.83
2018-07-27T10:48:46.275Z,26.96
2018-07-27T10:51:15.203Z,27.14
2018-07-27T10:53:44.012Z,27.00
2018-07-27T10:56:12.841Z,27.27
2018-07-27T10:58:41.803Z,27.47
2018-07-27T11:01:10.687Z,27.94
2018-07-27T11:03:39.500Z,28.46
2018-07-27T11:06:08.333Z,29.13
2018-07-27T11:08:37.269Z,29.51
2018-07-27T11:11:06.342Z,29.75
2018-07-27T11:13:35.194Z,30.07
2018-07-27T11:16:04.043Z,30.35
2018-07-27T11:18:32.869Z,30.36
2018-07-27T11:21:01.725Z,30.78
2018-07-27T11:23:30.530Z,30.86
2018-07-27T11:25:59.353Z,30.77
2018-07-27T11:28:28.276Z,31.15
2018-07-27T11:30:57.122Z,31.01
2018-07-27T11:33:25.917Z,30.88
2018-07-27T11:35:55.218Z,31.39
2018-07-27T11:38:24.012Z,31.58
2018-07-27T11:40:52.847Z,32.25
2018-07-27T11:43:21.668Z,32.34
2018-07-27T11:45:50.463Z,32.39
2018-07-27T11:48:19.346Z,31.85
2018-07-27T11:50:48.238Z,32.07
2018-07-27T11:53:17.204Z,31.87
2018-07-27T11:55:46.108Z,32.59
2018-07-27T11:58:14.968Z,32.54
2018-07-27T12:00:43.820Z,32.75
2018-07-27T12:03:12.593Z,33.19
2018-07-27T12:05:41.436Z,33.58
2018-07-27T12:08:10.344Z,33.81
2018-07-27T12:10:39.324Z,33.57
2018-07-27T12:13:08.545Z,33.63
2018-07-27T12:15:37.340Z,33.95
2018-07-27T12:18:06.257Z,34.27
2018-07-27T12:20:35.201Z,34.40
2018-07-27T12:23:03.924Z,34.46
2018-07-27T12:25:32.656Z,34.41
2018-07-27T12:28:01.584Z,34.64
2018-07-27T12:30:30.953Z,35.17
2018-07-27T12:32:59.816Z,35.33
2018-07-27T12:35:28.749Z,35.09
2018-07-27T12:37:57.660Z,35.18
2018-07-27T12:40:26.606Z,34.92
2018-07-27T12:42:55.464Z,34.36
2018-07-27T12:45:24.223Z,33.58
2018-07-27T12:47:52.905Z,32.45
2018-07-27T12:50:21.613Z,31.88
2018-07-27T12:52:50.368Z,31.17
2018-07-27T12:55:19.058Z,30.25
2018-07-27T12:57:47.717Z,29.65
2018-07-27T13:00:16.400Z,28.77
2018-07-27T13:02:45.082Z,28.80
2018-07-27T13:05:13.835Z,28.54
2018-07-27T13:07:42.614Z,28.83
2018-07-27T13:10:11.280Z,28.85
2018-07-27T13:12:40.010Z,29.18
2018-07-27T13:15:09.659Z,30.02
2018-07-27T13:17:38.709Z,30.98
2018-07-27T13:20:07.782Z,31.73
2018-07-27T13:22:36.428Z,32.09
2018-07-27T13:25:05.452Z,32.54
2018-07-27T13:27:34.159Z,32.52
2018-07-27T13:30:04.447Z,32.38
2018-07-27T13:32:33.139Z,31.72
2018-07-27T13:35:02.329Z,31.13
2018-07-27T13:37:32.242Z,30.16
2018-07-27T13:40:02.053Z,29.46
2018-07-27T13:42:33.412Z,28.71
2018-07-27T13:45:02.118Z,28.38
2018-07-27T13:47:30.825Z,27.95
2018-07-27T13:49:59.583Z,27.79
2018-07-27T13:52:28.278Z,27.57
2018-07-27T13:54:56.957Z,27.48
2018-07-27T13:57:25.695Z,27.41
2018-07-27T13:59:54.455Z,27.30
2018-07-27T14:02:23.129Z,27.37
2018-07-27T14:04:51.830Z,27.14
2018-07-27T14:07:20.440Z,27.11
2018-07-27T14:09:49.054Z,27.06
2018-07-27T14:12:17.722Z,26.96
2018-07-27T14:14:46.447Z,26.73
2018-07-27T14:17:15.112Z,26.33
2018-07-27T14:19:43.806Z,25.73
2018-07-27T14:22:12.450Z,25.05
2018-07-27T14:24:41.465Z,25.01
2018-07-27T14:27:10.159Z,24.75
2018-07-27T14:29:38.874Z,24.42
2018-07-27T14:32:07.638Z,24.51
2018-07-27T14:34:36.328Z,24.60
2018-07-27T14:37:05.058Z,22.52
2018-07-27T14:39:33.714Z,21.45
2018-07-27T14:42:02.403Z,20.73
2018-07-27T14:44:31.196Z,20.42
2018-07-27T14:46:59.918Z,20.39
2018-07-27T14:49:28.639Z,20.39
2018-07-27T14:51:57.329Z,20.44
2018-07-27T14:54:26.016Z,20.37
2018-07-27T14:56:54.716Z,20.41
2018-07-27T14:59:23.443Z,20.48
2018-07-27T15:01:52.187Z,20.52
2018-07-27T15:04:20.874Z,20.55
2018-07-27T15:06:50.566Z,20.69
2018-07-27T15:09:19.252Z,20.79
2018-07-27T15:11:47.967Z,21.03
2018-07-27T15:14:16.788Z,21.11
2018-07-27T15:16:45.376Z,21.23
2018-07-27T15:19:13.997Z,21.45
2018-07-27T15:21:42.714Z,21.73
2018-07-27T15:24:11.390Z,22.03
2018-07-27T15:26:40.043Z,22.29
2018-07-27T15:29:08.769Z,22.54
2018-07-27T15:31:37.476Z,22.68
2018-07-27T15:34:06.301Z,22.86
2018-07-27T15:36:35.027Z,23.07
2018-07-27T15:39:04.101Z,23.12
2018-07-27T15:41:32.823Z,23.26
2018-07-27T15:44:03.417Z,23.30
2018-07-27T15:46:32.098Z,23.35
2018-07-27T15:49:00.786Z,23.41
2018-07-27T15:51:29.451Z,23.17
2018-07-27T15:53:58.194Z,23.33
2018-07-27T15:56:26.909Z,23.41
2018-07-27T15:58:55.571Z,23.66
2018-07-27T16:01:24.200Z,23.96
2018-07-27T16:03:53.009Z,24.38
2018-07-27T16:06:21.681Z,24.79
2018-07-27T16:08:50.331Z,25.04
2018-07-27T16:11:19.059Z,25.41
2018-07-27T16:15:17.082Z,25.69
2018-07-27T16:17:45.734Z,25.99
2018-07-27T16:20:14.393Z,26.27
2018-07-27T16:22:43.117Z,26.46
2018-07-27T16:25:11.835Z,26.55
2018-07-27T16:27:40.591Z,26.71
2018-07-27T16:30:09.458Z,26.84
2018-07-27T16:32:38.123Z,26.93
2018-07-27T16:35:06.955Z,26.80
2018-07-27T16:37:35.650Z,26.52
2018-07-27T16:40:04.493Z,26.29
2018-07-27T16:42:33.116Z,26.06
2018-07-27T16:45:01.919Z,25.81
2018-07-27T16:47:30.679Z,25.59
2018-07-27T16:49:59.345Z,25.37
2018-07-27T16:52:28.034Z,24.92
2018-07-27T16:54:56.710Z,24.53
2018-07-27T16:57:26.623Z,24.29
2018-07-27T16:59:55.355Z,24.10
2018-07-27T17:02:24.907Z,23.98
2018-07-27T17:04:53.567Z,23.90
2018-07-27T17:07:22.301Z,23.92
2018-07-27T17:09:51.012Z,23.84
2018-07-27T17:12:19.668Z,23.85
2018-07-27T17:14:48.350Z,23.87
2018-07-27T17:17:17.118Z,23.78
2018-07-27T17:19:48.742Z,23.69
2018-07-27T17:22:17.379Z,23.51
2018-07-27T17:24:46.047Z,23.37
2018-07-27T17:27:14.823Z,23.20
2018-07-27T17:29:43.489Z,23.08
2018-07-27T17:32:12.166Z,22.88
2018-07-27T17:34:40.832Z,22.80
2018-07-27T17:37:09.528Z,22.76
2018-07-27T17:39:38.258Z,22.55
2018-07-27T17:42:08.014Z,22.53
2018-07-27T17:44:36.671Z,22.50
2018-07-27T17:47:05.658Z,22.41
2018-07-27T17:49:34.279Z,22.36
2018-07-27T17:52:02.999Z,22.18
2018-07-27T17:54:31.631Z,22.12
2018-07-27T17:57:00.275Z,22.12
2018-07-27T17:59:28.962Z,21.97
2018-07-27T18:01:57.614Z,21.93
2018-07-27T18:04:26.369Z,21.84
2018-07-27T18:06:55.072Z,21.83
2018-07-27T18:09:23.712Z,21.80
2018-07-27T18:11:52.690Z,21.78
2018-07-27T18:14:21.370Z,21.67
2018-07-27T18:16:50.009Z,21.60
2018-07-27T18:19:18.641Z,21.65
2018-07-27T18:21:47.395Z,21.74
2018-07-27T18:24:16.077Z,21.70
2018-07-27T18:26:44.880Z,21.75
2018-07-27T18:29:13.546Z,21.56
2018-07-27T18:31:42.254Z,21.60
2018-07-27T18:34:10.941Z,21.54
2018-07-27T18:36:40.555Z,21.55
2018-07-27T18:39:11.652Z,21.54
2018-07-27T18:41:40.331Z,21.38
2018-07-27T18:44:09.093Z,21.45
2018-07-27T18:46:39.530Z,21.43
2018-07-27T18:49:08.296Z,21.53
2018-07-27T18:51:37.056Z,21.58
2018-07-27T18:54:06.253Z,21.58
2018-07-27T18:56:35.110Z,21.56
2018-07-27T18:59:03.824Z,21.59
2018-07-27T19:01:33.447Z,21.60
2018-07-27T19:04:02.109Z,21.54
2018-07-27T19:06:30.748Z,21.61
2018-07-27T19:08:59.473Z,21.51
2018-07-27T19:11:28.133Z,21.40
2018-07-27T19:13:56.964Z,21.39
2018-07-27T19:16:25.665Z,21.40
2018-07-27T19:18:54.342Z,21.48
2018-07-27T19:21:23.012Z,21.46
2018-07-27T19:23:51.642Z,21.40
2018-07-27T19:26:21.971Z,21.38
2018-07-27T19:28:50.634Z,21.35
2018-07-27T19:31:19.361Z,21.25
2018-07-27T19:33:47.986Z,21.22
2018-07-27T19:36:16.732Z,21.25
2018-07-27T19:38:45.480Z,21.31
2018-07-27T19:41:14.155Z,21.27
2018-07-27T19:43:42.875Z,21.26
2018-07-27T19:50:46.631Z,21.09
2018-07-27T19:53:15.278Z,21.14
2018-07-27T19:55:43.944Z,21.19
2018-07-27T19:58:12.686Z,21.27
2018-07-27T20:00:41.715Z,21.26
2018-07-27T20:03:10.425Z,21.26
2018-07-27T20:05:39.066Z,21.28
2018-07-27T20:08:07.790Z,21.31
2018-07-27T20:10:36.511Z,21.31
2018-07-27T20:13:06.378Z,21.22
2018-07-27T20:15:35.149Z,21.26
2018-07-27T20:18:03.874Z,21.23
2018-07-27T20:20:32.571Z,21.36
2018-07-27T20:23:01.199Z,21.43
2018-07-27T20:25:29.925Z,21.48
2018-07-27T20:27:58.589Z,21.49
2018-07-27T20:30:27.351Z,21.55
2018-07-27T20:32:56.044Z,21.54
2018-07-27T20:35:24.706Z,21.58
2018-07-27T20:37:53.529Z,21.55
2018-07-27T20:40:22.249Z,21.58
2018-07-27T20:42:50.878Z,21.55
2018-07-27T20:45:19.588Z,21.47
2018-07-27T20:47:48.237Z,21.37
2018-07-27T20:50:16.890Z,21.42
2018-07-27T20:52:45.550Z,21.40
2018-07-27T20:55:14.204Z,21.40
2018-07-27T20:57:43.232Z,21.41
2018-07-27T21:00:12.862Z,21.43
2018-07-27T21:02:43.003Z,21.44
2018-07-27T21:05:12.641Z,21.40
2018-07-27T21:07:42.002Z,21.42
2018-07-27T21:10:11.285Z,21.35
2018-07-27T21:12:40.419Z,21.38
2018-07-27T21:15:09.058Z,21.31
2018-07-27T21:17:38.003Z,21.18
2018-07-27T21:20:07.360Z,21.03
2018-07-27T21:22:36.074Z,21.01
2018-07-27T21:25:05.132Z,21.02
2018-07-27T21:27:33.813Z,20.83
2018-07-27T21:30:02.538Z,20.77
2018-07-27T21:32:31.197Z,20.81
2018-07-27T21:34:59.831Z,20.69
2018-07-27T21:37:28.496Z,20.72
2018-07-27T21:39:57.234Z,20.72
2018-07-27T21:42:25.892Z,20.84
2018-07-27T21:44:54.534Z,20.92
2018-07-27T21:47:23.222Z,20.97
2018-07-27T21:49:51.854Z,21.02
2018-07-27T21:52:20.514Z,21.09
2018-07-27T21:54:49.113Z,21.13
2018-07-27T21:57:18.158Z,21.16
2018-07-27T21:59:46.817Z,21.14
2018-07-27T22:02:15.544Z,21.14
2018-07-27T22:04:44.176Z,21.12
2018-07-27T22:07:12.827Z,21.08
2018-07-27T22:09:41.437Z,21.06
2018-07-27T22:12:10.085Z,21.10
2018-07-27T22:14:38.751Z,21.04
2018-07-27T22:17:07.411Z,20.98
2018-07-27T22:19:36.030Z,20.88
2018-07-27T22:22:04.790Z,20.70
2018-07-27T22:24:33.471Z,20.67
2018-07-27T22:27:02.159Z,20.60
2018-07-27T22:29:30.856Z,20.50
2018-07-27T22:31:59.476Z,20.39
2018-07-27T22:34:28.104Z,20.31
2018-07-27T22:36:56.722Z,20.28
2018-07-27T22:39:25.393Z,20.28
2018-07-27T22:41:54.030Z,20.27
2018-07-27T22:44:22.641Z,20.14
2018-07-27T22:46:51.358Z,20.20
2018-07-27T22:49:19.981Z,20.13
2018-07-27T22:51:48.581Z,20.06
2018-07-27T22:54:17.234Z,20.03
2018-07-27T22:56:45.826Z,20.03
2018-07-27T22:59:14.541Z,19.97
2018-07-27T23:01:43.228Z,19.91
2018-07-27T23:04:11.813Z,19.83
2018-07-27T23:06:40.457Z,19.80
2018-07-27T23:09:10.618Z,19.74
2018-07-27T23:11:39.326Z,19.80
2018-07-27T23:14:08.155Z,19.77
2018-07-27T23:16:36.801Z,19.67
2018-07-27T23:19:05.443Z,19.70
2018-07-27T23:21:34.266Z,19.64
2018-07-27T23:24:03.089Z,19.59
2018-07-27T23:26:31.722Z,19.55
2018-07-27T23:29:00.398Z,19.58
2018-07-27T23:31:29.060Z,19.63
2018-07-27T23:33:57.746Z,19.66
2018-07-27T23:36:26.389Z,19.62
2018-07-27T23:38:54.969Z,19.60
2018-07-27T23:41:23.593Z,19.65
2018-07-27T23:43:52.221Z,19.58
2018-07-27T23:46:20.920Z,19.63
2018-07-27T23:48:49.550Z,19.56
2018-07-27T23:51:18.138Z,19.42
2018-07-27T23:53:46.757Z,19.39
2018-07-27T23:56:15.361Z,19.44
2018-07-27T23:58:43.978Z,19.35
